sensor_id;sensor_type;location;lat;lon;timestamp;pressure;altitude;pressure_sealevel;temperature;humidity
78459;BME280;67753;42.684;23.330;2023-03-03T00:00:37;95039.59;;;6.76;73.24
78459;BME280;67753;42.684;23.330;2023-03-03T00:02:39;95033.53;;;6.88;72.85
78459;BME280;67753;42.684;23.330;2023-03-03T00:04:41;95042.09;;;6.60;73.61
78459;BME280;67753;42.684;23.330;2023-03-03T00:06:43;95035.81;;;6.65;73.14
78459;BME280;67753;42.684;23.330;2023-03-03T00:08:45;95031.78;;;6.59;73.83
78459;BME280;67753;42.684;23.330;2023-03-03T00:10:48;95031.47;;;6.73;73.95
78459;BME280;67753;42.684;23.330;2023-03-03T00:12:52;95033.28;;;6.81;73.75
78459;BME280;67753;42.684;23.330;2023-03-03T00:14:55;95021.34;;;6.87;73.95
78459;BME280;67753;42.684;23.330;2023-03-03T00:17:00;95029.56;;;6.61;74.75
78459;BME280;67753;42.684;23.330;2023-03-03T00:19:02;95029.84;;;6.68;74.35
78459;BME280;67753;42.684;23.330;2023-03-03T00:21:27;95026.28;;;6.76;74.30
78459;BME280;67753;42.684;23.330;2023-03-03T00:23:32;95026.66;;;6.54;74.41
78459;BME280;67753;42.684;23.330;2023-03-03T00:25:36;95021.28;;;6.42;75.35
78459;BME280;67753;42.684;23.330;2023-03-03T00:27:38;95021.38;;;6.12;75.72
78459;BME280;67753;42.684;23.330;2023-03-03T00:29:45;95017.78;;;6.29;75.48
78459;BME280;67753;42.684;23.330;2023-03-03T00:31:47;95021.03;;;6.34;75.51
78459;BME280;67753;42.684;23.330;2023-03-03T00:33:52;95016.88;;;6.25;75.80
78459;BME280;67753;42.684;23.330;2023-03-03T00:35:55;95021.03;;;6.34;75.73
78459;BME280;67753;42.684;23.330;2023-03-03T00:37:58;95017.00;;;6.28;75.45
78459;BME280;67753;42.684;23.330;2023-03-03T00:40:15;95006.75;;;6.39;75.33
78459;BME280;67753;42.684;23.330;2023-03-03T00:42:19;95014.16;;;6.33;75.42
78459;BME280;67753;42.684;23.330;2023-03-03T00:44:37;95003.78;;;6.20;75.63
78459;BME280;67753;42.684;23.330;2023-03-03T00:46:41;95001.31;;;6.35;75.53
78459;BME280;67753;42.684;23.330;2023-03-03T00:48:44;94995.53;;;6.33;75.72
78459;BME280;67753;42.684;23.330;2023-03-03T00:50:47;94999.22;;;6.41;75.38
78459;BME280;67753;42.684;23.330;2023-03-03T00:52:58;94999.03;;;6.46;75.57
78459;BME280;67753;42.684;23.330;2023-03-03T00:55:01;94983.25;;;6.41;75.63
78459;BME280;67753;42.684;23.330;2023-03-03T00:57:04;94985.38;;;6.48;75.18
78459;BME280;67753;42.684;23.330;2023-03-03T00:59:06;94994.25;;;6.52;75.61
78459;BME280;67753;42.684;23.330;2023-03-03T01:01:08;94982.44;;;6.61;75.17
78459;BME280;67753;42.684;23.330;2023-03-03T01:03:14;94977.66;;;6.55;74.71
78459;BME280;67753;42.684;23.330;2023-03-03T01:05:18;94970.47;;;6.34;75.23
78459;BME280;67753;42.684;23.330;2023-03-03T01:07:20;94964.44;;;6.25;75.59
78459;BME280;67753;42.684;23.330;2023-03-03T01:09:22;94968.56;;;6.35;75.56
78459;BME280;67753;42.684;23.330;2023-03-03T01:11:25;94963.16;;;6.31;75.84
78459;BME280;67753;42.684;23.330;2023-03-03T01:13:30;94971.72;;;6.37;75.30
78459;BME280;67753;42.684;23.330;2023-03-03T01:15:33;94968.72;;;6.38;75.33
78459;BME280;67753;42.684;23.330;2023-03-03T01:17:35;94968.22;;;6.24;75.93
78459;BME280;67753;42.684;23.330;2023-03-03T01:19:41;94966.66;;;6.23;76.57
78459;BME280;67753;42.684;23.330;2023-03-03T01:21:43;94965.13;;;6.22;76.14
78459;BME280;67753;42.684;23.330;2023-03-03T01:23:45;94960.31;;;6.15;76.99
78459;BME280;67753;42.684;23.330;2023-03-03T01:25:47;94968.72;;;6.38;75.99
78459;BME280;67753;42.684;23.330;2023-03-03T01:27:50;94973.34;;;6.29;75.80
78459;BME280;67753;42.684;23.330;2023-03-03T01:29:52;94964.34;;;6.22;75.71
78459;BME280;67753;42.684;23.330;2023-03-03T01:31:56;94967.69;;;6.31;76.33
78459;BME280;67753;42.684;23.330;2023-03-03T01:33:58;94958.84;;;6.39;76.06
78459;BME280;67753;42.684;23.330;2023-03-03T01:36:02;94962.09;;;6.45;76.46
78459;BME280;67753;42.684;23.330;2023-03-03T01:38:04;94956.22;;;6.18;76.19
78459;BME280;67753;42.684;23.330;2023-03-03T01:40:12;94956.25;;;6.30;75.84
78459;BME280;67753;42.684;23.330;2023-03-03T01:42:14;94960.31;;;6.15;76.60
78459;BME280;67753;42.684;23.330;2023-03-03T01:44:17;94956.66;;;6.20;76.09
78459;BME280;67753;42.684;23.330;2023-03-03T01:46:47;94956.28;;;5.88;76.89
78459;BME280;67753;42.684;23.330;2023-03-03T01:48:55;94957.34;;;6.17;76.76
78459;BME280;67753;42.684;23.330;2023-03-03T01:51:06;94957.06;;;6.10;76.63
78459;BME280;67753;42.684;23.330;2023-03-03T01:53:17;94950.19;;;6.09;76.13
78459;BME280;67753;42.684;23.330;2023-03-03T01:55:21;94957.97;;;6.14;76.72
78459;BME280;67753;42.684;23.330;2023-03-03T01:57:26;94948.59;;;6.17;76.67
78459;BME280;67753;42.684;23.330;2023-03-03T01:59:31;94953.97;;;6.08;77.23
78459;BME280;67753;42.684;23.330;2023-03-03T02:01:35;94954.47;;;6.22;76.39
78459;BME280;67753;42.684;23.330;2023-03-03T02:03:38;94953.69;;;6.22;76.50
78459;BME280;67753;42.684;23.330;2023-03-03T02:05:41;94957.69;;;6.28;75.97
78459;BME280;67753;42.684;23.330;2023-03-03T02:07:45;94952.75;;;6.38;75.92
78459;BME280;67753;42.684;23.330;2023-03-03T02:09:53;94952.75;;;6.38;75.76
78459;BME280;67753;42.684;23.330;2023-03-03T02:12:00;94955.75;;;6.16;76.37
78459;BME280;67753;42.684;23.330;2023-03-03T02:14:04;94954.38;;;5.98;76.63
78459;BME280;67753;42.684;23.330;2023-03-03T02:16:06;94952.16;;;6.00;76.36
78459;BME280;67753;42.684;23.330;2023-03-03T02:18:11;94950.13;;;6.18;76.49
78459;BME280;67753;42.684;23.330;2023-03-03T02:20:19;94953.97;;;6.08;76.08
78459;BME280;67753;42.684;23.330;2023-03-03T02:22:31;94954.22;;;6.15;76.19
78459;BME280;67753;42.684;23.330;2023-03-03T02:24:41;94955.13;;;6.19;75.91
78459;BME280;67753;42.684;23.330;2023-03-03T02:26:46;94950.44;;;6.16;76.04
78459;BME280;67753;42.684;23.330;2023-03-03T02:28:49;94953.56;;;6.18;75.38
78459;BME280;67753;42.684;23.330;2023-03-03T02:30:53;94953.19;;;6.07;76.31
78459;BME280;67753;42.684;23.330;2023-03-03T02:32:55;94950.06;;;6.26;75.86
78459;BME280;67753;42.684;23.330;2023-03-03T02:34:57;94953.31;;;6.11;76.34
78459;BME280;67753;42.684;23.330;2023-03-03T02:36:59;94953.69;;;6.22;75.92
78459;BME280;67753;42.684;23.330;2023-03-03T02:39:06;94948.59;;;6.17;76.15
78459;BME280;67753;42.684;23.330;2023-03-03T02:41:14;94955.38;;;6.26;76.15
78459;BME280;67753;42.684;23.330;2023-03-03T02:43:21;94951.06;;;6.34;75.48
78459;BME280;67753;42.684;23.330;2023-03-03T02:45:24;94946.03;;;6.20;75.16
78459;BME280;67753;42.684;23.330;2023-03-03T02:47:26;94951.75;;;6.31;75.55
78459;BME280;67753;42.684;23.330;2023-03-03T02:49:29;94951.06;;;6.34;74.89
78459;BME280;67753;42.684;23.330;2023-03-03T02:51:32;94946.41;;;6.31;75.29
78459;BME280;67753;42.684;23.330;2023-03-03T02:53:34;94943.91;;;6.47;75.17
78459;BME280;67753;42.684;23.330;2023-03-03T02:55:38;94953.22;;;6.53;74.72
78459;BME280;67753;42.684;23.330;2023-03-03T02:57:40;94947.34;;;6.47;74.37
78459;BME280;67753;42.684;23.330;2023-03-03T02:59:44;94943.34;;;6.41;75.11
78459;BME280;67753;42.684;23.330;2023-03-03T03:01:46;94943.00;;;6.43;74.98
78459;BME280;67753;42.684;23.330;2023-03-03T03:03:48;94938.59;;;6.47;74.80
78459;BME280;67753;42.684;23.330;2023-03-03T03:05:50;94946.22;;;6.48;74.77
78459;BME280;67753;42.684;23.330;2023-03-03T03:07:51;94933.38;;;6.50;74.75
78459;BME280;67753;42.684;23.330;2023-03-03T03:09:53;94945.72;;;6.55;74.86
78459;BME280;67753;42.684;23.330;2023-03-03T03:11:55;94938.41;;;6.76;74.65
78459;BME280;67753;42.684;23.330;2023-03-03T03:13:58;94934.84;;;6.72;74.84
78459;BME280;67753;42.684;23.330;2023-03-03T03:16:02;94941.06;;;6.64;75.28
78459;BME280;67753;42.684;23.330;2023-03-03T03:18:04;94937.63;;;6.63;75.54
78459;BME280;67753;42.684;23.330;2023-03-03T03:20:07;94945.72;;;6.55;76.05
78459;BME280;67753;42.684;23.330;2023-03-03T03:22:09;94935.00;;;6.43;75.39
78459;BME280;67753;42.684;23.330;2023-03-03T03:24:11;94945.44;;;6.48;76.11
78459;BME280;67753;42.684;23.330;2023-03-03T03:26:13;94940.69;;;6.41;75.92
78459;BME280;67753;42.684;23.330;2023-03-03T03:28:16;94938.78;;;6.42;75.84
78459;BME280;67753;42.684;23.330;2023-03-03T03:30:18;94941.44;;;6.42;76.58
78459;BME280;67753;42.684;23.330;2023-03-03T03:32:23;94938.75;;;6.29;76.78
78459;BME280;67753;42.684;23.330;2023-03-03T03:34:25;94941.88;;;6.31;77.26
78459;BME280;67753;42.684;23.330;2023-03-03T03:36:27;94924.31;;;6.30;77.83
78459;BME280;67753;42.684;23.330;2023-03-03T03:38:30;94930.13;;;6.32;78.32
78459;BME280;67753;42.684;23.330;2023-03-03T03:40:32;94925.22;;;6.34;78.45
78459;BME280;67753;42.684;23.330;2023-03-03T03:42:33;94921.47;;;6.35;78.50
78459;BME280;67753;42.684;23.330;2023-03-03T03:44:35;94922.19;;;6.45;77.80
78459;BME280;67753;42.684;23.330;2023-03-03T03:46:38;94921.56;;;6.27;78.16
78459;BME280;67753;42.684;23.330;2023-03-03T03:48:41;94918.66;;;6.20;78.81
78459;BME280;67753;42.684;23.330;2023-03-03T03:50:43;94914.34;;;6.27;79.25
78459;BME280;67753;42.684;23.330;2023-03-03T03:52:45;94914.50;;;6.10;80.13
78459;BME280;67753;42.684;23.330;2023-03-03T03:54:47;94912.97;;;6.09;80.39
78459;BME280;67753;42.684;23.330;2023-03-03T03:56:49;94910.88;;;6.14;80.74
78459;BME280;67753;42.684;23.330;2023-03-03T03:58:53;94914.28;;;6.03;80.14
78459;BME280;67753;42.684;23.330;2023-03-03T04:01:01;94908.00;;;6.20;80.67
78459;BME280;67753;42.684;23.330;2023-03-03T04:03:04;94905.59;;;6.27;80.54
78459;BME280;67753;42.684;23.330;2023-03-03T04:05:08;94911.34;;;6.29;80.44
78459;BME280;67753;42.684;23.330;2023-03-03T04:07:10;94906.81;;;6.29;80.83
78459;BME280;67753;42.684;23.330;2023-03-03T04:09:12;94906.66;;;6.13;81.29
78459;BME280;67753;42.684;23.330;2023-03-03T04:11:14;94905.22;;;6.16;81.79
78459;BME280;67753;42.684;23.330;2023-03-03T04:13:16;94904.41;;;6.03;81.72
78459;BME280;67753;42.684;23.330;2023-03-03T04:15:18;94902.13;;;6.14;81.53
78459;BME280;67753;42.684;23.330;2023-03-03T04:17:22;94894.78;;;6.11;81.63
78459;BME280;67753;42.684;23.330;2023-03-03T04:19:25;94900.06;;;5.99;81.81
78459;BME280;67753;42.684;23.330;2023-03-03T04:21:28;94905.19;;;6.04;81.97
78459;BME280;67753;42.684;23.330;2023-03-03T04:23:30;94897.41;;;5.99;82.69
78459;BME280;67753;42.684;23.330;2023-03-03T04:25:32;94894.34;;;6.09;82.98
78459;BME280;67753;42.684;23.330;2023-03-03T04:27:35;94893.00;;;6.03;82.87
78459;BME280;67753;42.684;23.330;2023-03-03T04:29:37;94893.88;;;6.07;83.60
78459;BME280;67753;42.684;23.330;2023-03-03T04:31:39;94891.84;;;5.92;84.02
78459;BME280;67753;42.684;23.330;2023-03-03T04:33:41;94887.88;;;5.98;84.47
78459;BME280;67753;42.684;23.330;2023-03-03T04:35:43;94886.78;;;5.99;84.34
78459;BME280;67753;42.684;23.330;2023-03-03T04:37:47;94885.47;;;6.05;84.13
78459;BME280;67753;42.684;23.330;2023-03-03T04:39:49;94893.00;;;6.03;83.58
78459;BME280;67753;42.684;23.330;2023-03-03T04:41:51;94891.97;;;5.95;82.97
78459;BME280;67753;42.684;23.330;2023-03-03T04:43:52;94894.78;;;6.11;83.34
78459;BME280;67753;42.684;23.330;2023-03-03T04:45:54;94892.22;;;6.02;83.23
78459;BME280;67753;42.684;23.330;2023-03-03T04:47:56;94889.63;;;5.94;83.12
78459;BME280;67753;42.684;23.330;2023-03-03T04:49:58;94890.41;;;5.94;83.60
78459;BME280;67753;42.684;23.330;2023-03-03T04:52:00;94892.09;;;5.99;84.39
78459;BME280;67753;42.684;23.330;2023-03-03T04:54:06;94884.88;;;5.99;84.13
78459;BME280;67753;42.684;23.330;2023-03-03T04:56:08;94879.22;;;6.01;83.42
78459;BME280;67753;42.684;23.330;2023-03-03T04:58:10;94886.00;;;5.98;84.04
78459;BME280;67753;42.684;23.330;2023-03-03T05:00:13;94888.31;;;6.00;84.19
78459;BME280;67753;42.684;23.330;2023-03-03T05:02:14;94893.38;;;5.93;84.11
78459;BME280;67753;42.684;23.330;2023-03-03T05:04:18;94892.53;;;6.01;84.46
78459;BME280;67753;42.684;23.330;2023-03-03T05:06:20;94891.41;;;6.02;83.93
78459;BME280;67753;42.684;23.330;2023-03-03T05:08:24;94896.22;;;5.87;83.71
78459;BME280;67753;42.684;23.330;2023-03-03T05:10:27;94892.53;;;6.01;83.99
78459;BME280;67753;42.684;23.330;2023-03-03T05:12:29;94896.09;;;6.05;83.51
78459;BME280;67753;42.684;23.330;2023-03-03T05:14:31;94894.13;;;6.14;83.88
78459;BME280;67753;42.684;23.330;2023-03-03T05:16:33;94889.16;;;6.25;83.88
78459;BME280;67753;42.684;23.330;2023-03-03T05:18:35;94897.84;;;6.01;83.05
78459;BME280;67753;42.684;23.330;2023-03-03T05:20:39;94893.84;;;6.28;82.96
78459;BME280;67753;42.684;23.330;2023-03-03T05:22:41;94895.06;;;6.30;83.16
78459;BME280;67753;42.684;23.330;2023-03-03T05:24:43;94902.41;;;6.33;82.52
78459;BME280;67753;42.684;23.330;2023-03-03T05:26:49;94896.28;;;6.33;82.62
78459;BME280;67753;42.684;23.330;2023-03-03T05:28:51;94905.50;;;6.35;81.91
78459;BME280;67753;42.684;23.330;2023-03-03T05:30:54;94908.50;;;6.34;82.32
78459;BME280;67753;42.684;23.330;2023-03-03T05:32:58;94907.38;;;6.35;81.59
78459;BME280;67753;42.684;23.330;2023-03-03T05:35:00;94906.22;;;6.45;81.70
78459;BME280;67753;42.684;23.330;2023-03-03T05:37:02;94909.78;;;6.61;80.66
78459;BME280;67753;42.684;23.330;2023-03-03T05:39:06;94909.53;;;6.54;81.11
78459;BME280;67753;42.684;23.330;2023-03-03T05:41:08;94913.75;;;6.55;80.39
78459;BME280;67753;42.684;23.330;2023-03-03T05:43:11;94913.75;;;6.55;80.65
78459;BME280;67753;42.684;23.330;2023-03-03T05:45:12;94919.22;;;6.71;79.93
78459;BME280;67753;42.684;23.330;2023-03-03T05:47:15;94922.22;;;6.81;79.95
78459;BME280;67753;42.684;23.330;2023-03-03T05:49:17;94923.13;;;6.85;79.65
78459;BME280;67753;42.684;23.330;2023-03-03T05:51:18;94925.09;;;6.76;79.67
78459;BME280;67753;42.684;23.330;2023-03-03T05:53:20;94930.00;;;6.86;79.57
78459;BME280;67753;42.684;23.330;2023-03-03T05:55:22;94920.66;;;6.80;79.67
78459;BME280;67753;42.684;23.330;2023-03-03T05:57:24;94926.56;;;6.74;79.75
78459;BME280;67753;42.684;23.330;2023-03-03T05:59:28;94927.09;;;6.79;79.59
78459;BME280;67753;42.684;23.330;2023-03-03T06:01:30;94924.47;;;7.04;79.52
78459;BME280;67753;42.684;23.330;2023-03-03T06:03:33;94922.00;;;6.74;78.91
78459;BME280;67753;42.684;23.330;2023-03-03T06:05:35;94917.81;;;6.98;79.14
78459;BME280;67753;42.684;23.330;2023-03-03T06:07:37;94929.34;;;6.89;78.61
78459;BME280;67753;42.684;23.330;2023-03-03T06:09:39;94921.91;;;7.07;78.75
78459;BME280;67753;42.684;23.330;2023-03-03T06:11:41;94921.34;;;7.26;78.35
78459;BME280;67753;42.684;23.330;2023-03-03T06:13:43;94927.13;;;7.28;78.08
78459;BME280;67753;42.684;23.330;2023-03-03T06:15:46;94928.22;;;7.27;77.36
78459;BME280;67753;42.684;23.330;2023-03-03T06:17:48;94924.91;;;7.18;78.24
78459;BME280;67753;42.684;23.330;2023-03-03T06:19:50;94928.47;;;7.22;78.34
78459;BME280;67753;42.684;23.330;2023-03-03T06:21:52;94932.91;;;7.06;78.66
78459;BME280;67753;42.684;23.330;2023-03-03T06:23:54;94927.78;;;7.13;79.17
78459;BME280;67753;42.684;23.330;2023-03-03T06:25:56;94937.09;;;6.82;78.66
78459;BME280;67753;42.684;23.330;2023-03-03T06:27:58;94934.31;;;6.91;81.42
78459;BME280;67753;42.684;23.330;2023-03-03T06:30:00;94933.66;;;6.94;81.60
78459;BME280;67753;42.684;23.330;2023-03-03T06:32:04;94929.34;;;6.89;81.63
78459;BME280;67753;42.684;23.330;2023-03-03T06:34:06;94931.09;;;6.73;80.68
78459;BME280;67753;42.684;23.330;2023-03-03T06:36:08;94935.53;;;6.69;80.94
78459;BME280;67753;42.684;23.330;2023-03-03T06:38:10;94931.31;;;6.80;80.78
78459;BME280;67753;42.684;23.330;2023-03-03T06:40:13;94938.66;;;6.96;80.15
78459;BME280;67753;42.684;23.330;2023-03-03T06:42:14;94939.22;;;6.89;80.12
78459;BME280;67753;42.684;23.330;2023-03-03T06:44:16;94938.00;;;7.23;80.00
78459;BME280;67753;42.684;23.330;2023-03-03T06:46:18;94931.44;;;7.33;79.88
78459;BME280;67753;42.684;23.330;2023-03-03T06:48:21;94939.13;;;7.34;79.60
78459;BME280;67753;42.684;23.330;2023-03-03T06:50:24;94934.44;;;7.31;79.73
78459;BME280;67753;42.684;23.330;2023-03-03T06:52:26;94934.00;;;7.41;79.51
78459;BME280;67753;42.684;23.330;2023-03-03T06:54:28;94939.31;;;7.41;78.97
78459;BME280;67753;42.684;23.330;2023-03-03T06:56:33;94933.28;;;7.69;78.71
78459;BME280;67753;42.684;23.330;2023-03-03T06:58:36;94944.63;;;7.66;77.12
78459;BME280;67753;42.684;23.330;2023-03-03T07:00:40;94951.16;;;7.81;77.57
78459;BME280;67753;42.684;23.330;2023-03-03T07:02:43;94943.88;;;8.06;76.53
78459;BME280;67753;42.684;23.330;2023-03-03T07:04:47;94952.81;;;7.85;75.93
78459;BME280;67753;42.684;23.330;2023-03-03T07:06:48;94951.00;;;8.02;77.04
78459;BME280;67753;42.684;23.330;2023-03-03T07:08:51;94945.56;;;7.98;77.43
78459;BME280;67753;42.684;23.330;2023-03-03T07:10:53;94956.81;;;7.91;77.63
78459;BME280;67753;42.684;23.330;2023-03-03T07:12:57;94958.34;;;7.92;77.07
78459;BME280;67753;42.684;23.330;2023-03-03T07:15:14;94947.88;;;8.00;77.81
78459;BME280;67753;42.684;23.330;2023-03-03T07:17:18;94956.88;;;7.67;75.73
78459;BME280;67753;42.684;23.330;2023-03-03T07:19:25;94946.38;;;7.86;77.91
78459;BME280;67753;42.684;23.330;2023-03-03T07:21:33;94952.59;;;7.78;76.58
78459;BME280;67753;42.684;23.330;2023-03-03T07:23:37;94951.94;;;7.81;77.80
78459;BME280;67753;42.684;23.330;2023-03-03T07:25:42;94953.28;;;7.75;77.13
78459;BME280;67753;42.684;23.330;2023-03-03T07:27:46;94954.16;;;7.79;77.09
78459;BME280;67753;42.684;23.330;2023-03-03T07:29:48;94955.34;;;7.94;76.88
78459;BME280;67753;42.684;23.330;2023-03-03T07:31:52;94954.78;;;8.01;76.13
78459;BME280;67753;42.684;23.330;2023-03-03T07:33:56;94951.56;;;8.23;75.72
78459;BME280;67753;42.684;23.330;2023-03-03T07:36:01;94952.44;;;8.27;75.00
78459;BME280;67753;42.684;23.330;2023-03-03T07:38:22;94951.56;;;8.23;74.21
78459;BME280;67753;42.684;23.330;2023-03-03T07:40:30;94949.09;;;8.02;74.59
78459;BME280;67753;42.684;23.330;2023-03-03T07:42:39;94945.00;;;8.05;74.67
78459;BME280;67753;42.684;23.330;2023-03-03T07:44:41;94941.13;;;8.18;74.66
78459;BME280;67753;42.684;23.330;2023-03-03T07:46:46;94939.94;;;8.15;75.78
78459;BME280;67753;42.684;23.330;2023-03-03T07:48:49;94951.38;;;7.88;76.56
78459;BME280;67753;42.684;23.330;2023-03-03T07:50:51;94942.97;;;8.14;76.07
78459;BME280;67753;42.684;23.330;2023-03-03T07:52:54;94946.94;;;8.20;75.64
78459;BME280;67753;42.684;23.330;2023-03-03T07:55:01;94942.72;;;8.19;74.86
78459;BME280;67753;42.684;23.330;2023-03-03T07:57:22;94944.44;;;8.39;75.21
78459;BME280;67753;42.684;23.330;2023-03-03T07:59:26;94941.25;;;8.50;74.68
78459;BME280;67753;42.684;23.330;2023-03-03T08:01:35;94943.44;;;8.60;74.30
78459;BME280;67753;42.684;23.330;2023-03-03T08:03:41;94950.16;;;8.54;74.57
78459;BME280;67753;42.684;23.330;2023-03-03T08:05:47;94937.31;;;8.31;74.51
78459;BME280;67753;42.684;23.330;2023-03-03T08:07:50;94930.94;;;8.48;74.39
78459;BME280;67753;42.684;23.330;2023-03-03T08:09:56;94938.22;;;8.23;73.70
78459;BME280;67753;42.684;23.330;2023-03-03T08:14:29;94936.16;;;8.44;74.46
78459;BME280;67753;42.684;23.330;2023-03-03T08:16:36;94937.31;;;8.31;76.41
78459;BME280;67753;42.684;23.330;2023-03-03T08:18:40;94935.97;;;8.37;77.65
78459;BME280;67753;42.684;23.330;2023-03-03T08:20:48;94933.34;;;8.25;77.24
78459;BME280;67753;42.684;23.330;2023-03-03T08:22:50;94934.22;;;8.29;78.09
78459;BME280;67753;42.684;23.330;2023-03-03T08:24:52;94930.19;;;8.35;78.65
78459;BME280;67753;42.684;23.330;2023-03-03T08:26:54;94921.19;;;8.56;78.21
78459;BME280;67753;42.684;23.330;2023-03-03T08:28:58;94932.22;;;8.38;77.52
78459;BME280;67753;42.684;23.330;2023-03-03T08:31:00;94930.16;;;8.48;77.35
78459;BME280;67753;42.684;23.330;2023-03-03T08:33:02;94929.47;;;8.51;77.42
78459;BME280;67753;42.684;23.330;2023-03-03T08:35:05;94928.63;;;8.34;76.82
78459;BME280;67753;42.684;23.330;2023-03-03T08:37:07;94922.94;;;8.08;77.53
78459;BME280;67753;42.684;23.330;2023-03-03T08:39:09;94930.03;;;8.16;77.66
78459;BME280;67753;42.684;23.330;2023-03-03T08:41:11;94926.94;;;8.14;77.46
78459;BME280;67753;42.684;23.330;2023-03-03T08:43:14;94920.88;;;8.29;76.88
78459;BME280;67753;42.684;23.330;2023-03-03T08:45:18;94923.44;;;8.54;76.09
78459;BME280;67753;42.684;23.330;2023-03-03T08:47:20;94924.88;;;8.51;75.06
78459;BME280;67753;42.684;23.330;2023-03-03T08:49:22;94924.69;;;8.72;74.72
78459;BME280;67753;42.684;23.330;2023-03-03T08:51:23;94929.41;;;8.63;74.45
78459;BME280;67753;42.684;23.330;2023-03-03T08:53:26;94925.44;;;8.57;74.42
78459;BME280;67753;42.684;23.330;2023-03-03T08:55:29;94930.69;;;8.53;73.83
78459;BME280;67753;42.684;23.330;2023-03-03T08:57:31;94927.88;;;8.78;74.06
78459;BME280;67753;42.684;23.330;2023-03-03T08:59:33;94927.78;;;9.06;74.82
78459;BME280;67753;42.684;23.330;2023-03-03T09:01:39;94936.91;;;9.20;73.92
78459;BME280;67753;42.684;23.330;2023-03-03T09:03:44;94929.06;;;9.12;72.34
78459;BME280;67753;42.684;23.330;2023-03-03T09:05:46;94934.59;;;9.19;72.54
78459;BME280;67753;42.684;23.330;2023-03-03T09:07:49;94931.03;;;9.46;71.36
78459;BME280;67753;42.684;23.330;2023-03-03T09:09:51;94938.75;;;9.67;70.50
78459;BME280;67753;42.684;23.330;2023-03-03T09:11:57;94933.50;;;9.90;70.25
78459;BME280;67753;42.684;23.330;2023-03-03T09:14:06;94930.97;;;9.97;70.45
78459;BME280;67753;42.684;23.330;2023-03-03T09:16:12;94935.59;;;10.01;68.05
78459;BME280;67753;42.684;23.330;2023-03-03T09:18:18;94927.66;;;10.23;69.16
78459;BME280;67753;42.684;23.330;2023-03-03T09:20:33;94929.75;;;9.95;68.27
78459;BME280;67753;42.684;23.330;2023-03-03T09:22:37;94936.06;;;10.03;68.88
78459;BME280;67753;42.684;23.330;2023-03-03T09:24:41;94927.00;;;10.11;68.49
78459;BME280;67753;42.684;23.330;2023-03-03T09:26:45;94936.63;;;10.12;69.42
78459;BME280;67753;42.684;23.330;2023-03-03T09:28:47;94931.53;;;10.07;69.75
78459;BME280;67753;42.684;23.330;2023-03-03T09:30:50;94934.06;;;9.99;69.30
78459;BME280;67753;42.684;23.330;2023-03-03T09:32:52;94935.91;;;10.15;68.46
78459;BME280;67753;42.684;23.330;2023-03-03T09:34:58;94935.03;;;10.27;68.76
78459;BME280;67753;42.684;23.330;2023-03-03T09:37:14;94946.78;;;10.41;68.79
78459;BME280;67753;42.684;23.330;2023-03-03T09:39:20;94937.88;;;10.18;68.90
78459;BME280;67753;42.684;23.330;2023-03-03T09:44:24;94942.53;;;10.60;67.96
78459;BME280;67753;42.684;23.330;2023-03-03T09:46:37;94940.41;;;10.69;66.90
78459;BME280;67753;42.684;23.330;2023-03-03T09:49:01;94939.00;;;10.98;65.67
78459;BME280;67753;42.684;23.330;2023-03-03T09:51:34;94932.22;;;10.62;66.19
78459;BME280;67753;42.684;23.330;2023-03-03T09:53:49;94938.88;;;10.48;67.01
78459;BME280;67753;42.684;23.330;2023-03-03T09:55:58;94936.69;;;10.77;66.51
78459;BME280;67753;42.684;23.330;2023-03-03T09:58:23;94934.03;;;10.77;66.14
78459;BME280;67753;42.684;23.330;2023-03-03T10:00:35;94938.56;;;10.54;66.53
78459;BME280;67753;42.684;23.330;2023-03-03T10:02:50;94931.19;;;10.47;67.22
78459;BME280;67753;42.684;23.330;2023-03-03T10:05:16;94936.97;;;10.49;67.55
78459;BME280;67753;42.684;23.330;2023-03-03T10:07:31;94930.97;;;10.56;67.12
78459;BME280;67753;42.684;23.330;2023-03-03T10:09:52;94936.75;;;10.38;66.93
78459;BME280;67753;42.684;23.330;2023-03-03T10:12:04;94918.63;;;9.38;67.50
78459;BME280;67753;42.684;23.330;2023-03-03T10:14:29;94930.66;;;9.48;68.56
78459;BME280;67753;42.684;23.330;2023-03-03T10:16:49;94922.19;;;9.62;69.53
78459;BME280;67753;42.684;23.330;2023-03-03T10:18:59;94922.31;;;9.69;69.13
78459;BME280;67753;42.684;23.330;2023-03-03T10:21:08;94914.84;;;9.59;68.36
78459;BME280;67753;42.684;23.330;2023-03-03T10:23:19;94917.78;;;9.54;68.71
78459;BME280;67753;42.684;23.330;2023-03-03T10:25:41;94911.56;;;9.65;68.41
78459;BME280;67753;42.684;23.330;2023-03-03T10:28:16;94915.03;;;9.66;68.31
78459;BME280;67753;42.684;23.330;2023-03-03T10:30:32;94909.97;;;9.99;67.59
78459;BME280;67753;42.684;23.330;2023-03-03T10:32:48;94906.97;;;9.31;68.85
78459;BME280;67753;42.684;23.330;2023-03-03T10:35:13;94903.69;;;9.37;70.26
78459;BME280;67753;42.684;23.330;2023-03-03T10:37:52;94903.59;;;9.69;68.29
78459;BME280;67753;42.684;23.330;2023-03-03T10:40:10;94903.97;;;9.32;67.73
78459;BME280;67753;42.684;23.330;2023-03-03T10:42:20;94904.75;;;9.01;69.26
78459;BME280;67753;42.684;23.330;2023-03-03T10:44:41;94901.88;;;9.41;69.58
78459;BME280;67753;42.684;23.330;2023-03-03T10:46:59;94898.34;;;9.37;69.05
78459;BME280;67753;42.684;23.330;2023-03-03T10:51:43;94901.25;;;9.13;69.39
78459;BME280;67753;42.684;23.330;2023-03-03T10:54:01;94893.97;;;9.29;70.13
78459;BME280;67753;42.684;23.330;2023-03-03T10:56:24;94899.81;;;8.56;69.57
78459;BME280;67753;42.684;23.330;2023-03-03T10:58:45;94894.31;;;8.49;72.05
78459;BME280;67753;42.684;23.330;2023-03-03T11:00:56;94885.78;;;8.43;70.80
78459;BME280;67753;42.684;23.330;2023-03-03T11:03:27;94893.19;;;8.65;71.76
78459;BME280;67753;42.684;23.330;2023-03-03T11:05:39;94894.00;;;8.66;70.92
78459;BME280;67753;42.684;23.330;2023-03-03T11:07:45;94889.66;;;8.45;70.63
78459;BME280;67753;42.684;23.330;2023-03-03T11:10:02;94884.00;;;8.94;71.68
78459;BME280;67753;42.684;23.330;2023-03-03T11:12:20;94884.34;;;9.09;70.63